createdAt,value
2019-06-20T00:00:45.992Z,21.30
2019-06-20T00:03:14.639Z,21.20
2019-06-20T00:05:43.469Z,21.30
2019-06-20T00:08:12.325Z,21.30
2019-06-20T00:10:40.963Z,21.20
2019-06-20T00:13:09.718Z,21.20
2019-06-20T00:15:39.164Z,21.20
2019-06-20T00:18:07.804Z,21.20
2019-06-20T00:20:36.452Z,21.20
2019-06-20T00:23:05.221Z,21.20
2019-06-20T00:25:33.800Z,21.20
2019-06-20T00:28:02.491Z,21.10
2019-06-20T00:30:31.107Z,21.00
2019-06-20T00:32:59.788Z,21.00
2019-06-20T00:35:28.375Z,20.80
2019-06-20T00:37:57.039Z,20.80
2019-06-20T00:40:25.651Z,20.80
2019-06-20T00:42:54.313Z,20.80
2019-06-20T00:45:23.166Z,20.80
2019-06-20T00:47:51.796Z,20.80
2019-06-20T00:50:20.409Z,20.70
2019-06-20T00:52:49.039Z,20.70
2019-06-20T00:55:17.652Z,20.70
2019-06-20T00:57:46.333Z,20.70
2019-06-20T01:00:15.334Z,20.60
2019-06-20T01:02:44.016Z,20.60
2019-06-20T01:05:13.350Z,20.60
2019-06-20T01:07:41.993Z,20.50
2019-06-20T01:10:10.803Z,20.60
2019-06-20T01:12:39.444Z,20.50
2019-06-20T01:15:08.336Z,20.50
2019-06-20T01:17:37.103Z,20.60
2019-06-20T01:20:05.860Z,20.60
2019-06-20T01:22:34.501Z,20.60
2019-06-20T01:25:03.129Z,20.50
2019-06-20T01:27:31.820Z,20.50
2019-06-20T01:30:00.433Z,20.40
2019-06-20T01:32:29.121Z,20.40
2019-06-20T01:34:57.736Z,20.30
2019-06-20T01:37:26.365Z,20.30
2019-06-20T01:39:55.000Z,20.30
2019-06-20T01:42:23.681Z,20.30
2019-06-20T01:44:52.276Z,20.30
2019-06-20T01:47:20.936Z,20.20
2019-06-20T01:49:49.540Z,20.20
2019-06-20T01:52:18.188Z,20.10
2019-06-20T01:54:46.969Z,20.00
2019-06-20T01:57:15.644Z,20.00
2019-06-20T01:59:44.245Z,20.00
2019-06-20T02:02:12.911Z,20.00
2019-06-20T02:04:41.489Z,20.10
2019-06-20T02:07:10.151Z,20.20
2019-06-20T02:09:38.852Z,20.20
2019-06-20T02:12:07.492Z,20.20
2019-06-20T02:14:36.081Z,20.20
2019-06-20T02:17:04.854Z,20.20
2019-06-20T02:19:33.490Z,20.10
2019-06-20T02:22:02.121Z,20.00
2019-06-20T02:24:30.748Z,20.00
2019-06-20T02:26:59.424Z,20.00
2019-06-20T02:29:28.057Z,20.00
2019-06-20T02:31:56.698Z,19.90
2019-06-20T02:34:25.319Z,19.90
2019-06-20T02:36:53.946Z,19.90
2019-06-20T02:39:22.577Z,19.90
2019-06-20T02:41:51.226Z,19.80
2019-06-20T02:44:29.822Z,19.80
2019-06-20T02:46:50.143Z,19.70
2019-06-20T02:49:18.767Z,19.70
2019-06-20T02:51:48.274Z,19.70
2019-06-20T02:54:16.867Z,19.60
2019-06-20T02:56:45.466Z,19.70
2019-06-20T02:59:14.123Z,19.60
2019-06-20T03:01:42.752Z,19.60
2019-06-20T03:04:11.377Z,19.60
2019-06-20T03:06:40.007Z,19.50
2019-06-20T03:09:08.781Z,19.50
2019-06-20T03:11:37.402Z,19.50
2019-06-20T03:14:06.061Z,19.40
2019-06-20T03:16:34.645Z,19.30
2019-06-20T03:19:03.334Z,19.30
2019-06-20T03:21:31.933Z,19.20
2019-06-20T03:24:00.605Z,19.20
2019-06-20T03:26:29.199Z,19.20
2019-06-20T03:28:57.936Z,19.20
2019-06-20T03:31:26.552Z,19.20
2019-06-20T03:33:55.195Z,19.40
2019-06-20T03:36:23.805Z,19.50
2019-06-20T03:38:52.516Z,19.60
2019-06-20T03:41:21.168Z,19.60
2019-06-20T03:43:49.793Z,19.70
2019-06-20T03:46:18.415Z,19.90
2019-06-20T03:48:47.070Z,20.00
2019-06-20T03:51:15.712Z,20.10
2019-06-20T03:53:44.315Z,20.10
2019-06-20T03:56:12.944Z,20.00
2019-06-20T03:58:41.598Z,20.00
2019-06-20T04:01:10.230Z,20.00
2019-06-20T04:03:38.853Z,20.10
2019-06-20T04:06:07.475Z,20.10
2019-06-20T04:08:36.114Z,20.20
2019-06-20T04:11:04.702Z,20.20
2019-06-20T04:13:33.354Z,20.30
2019-06-20T04:16:01.967Z,20.30
2019-06-20T04:18:30.592Z,20.20
2019-06-20T04:20:59.199Z,20.20
2019-06-20T04:23:27.872Z,20.30
2019-06-20T04:25:56.642Z,20.30
2019-06-20T04:28:25.286Z,20.30
2019-06-20T04:30:53.887Z,20.40
2019-06-20T04:33:22.556Z,20.40
2019-06-20T04:35:51.152Z,20.40
2019-06-20T04:38:19.807Z,20.50
2019-06-20T04:40:48.407Z,20.40
2019-06-20T04:43:17.088Z,20.50
2019-06-20T04:46:07.501Z,20.50
2019-06-20T04:48:36.162Z,20.60
2019-06-20T04:51:04.802Z,20.60
2019-06-20T04:53:33.453Z,20.60
2019-06-20T04:56:05.404Z,20.70
2019-06-20T04:58:32.361Z,20.70
2019-06-20T05:01:01.004Z,20.70
2019-06-20T05:03:29.702Z,20.70
2019-06-20T05:05:58.455Z,20.70
2019-06-20T05:08:27.083Z,20.70
2019-06-20T05:10:55.733Z,20.70
2019-06-20T05:13:24.398Z,20.70
2019-06-20T05:15:53.501Z,20.70
2019-06-20T05:18:22.381Z,20.60
2019-06-20T05:20:51.005Z,20.50
2019-06-20T05:23:19.616Z,20.50
2019-06-20T05:25:48.262Z,20.40
2019-06-20T05:28:16.923Z,20.40
2019-06-20T05:30:45.749Z,20.40
2019-06-20T05:33:14.437Z,20.40
2019-06-20T05:35:43.142Z,20.40
2019-06-20T05:38:11.760Z,20.40
2019-06-20T05:40:40.362Z,20.40
2019-06-20T05:43:09.039Z,20.40
2019-06-20T05:45:37.654Z,20.40
2019-06-20T05:48:06.304Z,20.40
2019-06-20T05:50:34.981Z,20.40
2019-06-20T05:53:03.656Z,20.50
2019-06-20T05:55:32.922Z,20.40
2019-06-20T05:58:01.617Z,20.50
2019-06-20T06:00:30.223Z,20.50
2019-06-20T06:02:58.897Z,20.60
2019-06-20T06:05:27.514Z,20.60
2019-06-20T06:07:56.163Z,20.60
2019-06-20T06:10:24.893Z,20.60
2019-06-20T06:12:53.545Z,20.60
2019-06-20T06:15:22.307Z,20.60
2019-06-20T06:17:51.005Z,20.60
2019-06-20T06:20:20.107Z,20.70
2019-06-20T06:22:48.805Z,20.70
2019-06-20T06:25:17.527Z,20.80
2019-06-20T06:27:46.222Z,20.80
2019-06-20T06:30:14.975Z,20.80
2019-06-20T06:32:43.605Z,20.90
2019-06-20T06:35:12.348Z,21.00
2019-06-20T06:37:41.113Z,21.00
2019-06-20T06:40:10.131Z,21.00
2019-06-20T06:42:38.899Z,21.00
2019-06-20T06:45:07.915Z,21.10
2019-06-20T06:47:36.568Z,21.00
2019-06-20T06:50:05.516Z,21.00
2019-06-20T06:52:34.148Z,21.10
2019-06-20T06:55:02.911Z,21.10
2019-06-20T06:57:31.537Z,21.10
2019-06-20T07:00:00.184Z,21.20
2019-06-20T07:02:28.827Z,21.20
2019-06-20T07:04:57.483Z,21.30
2019-06-20T07:07:26.077Z,21.30
2019-06-20T07:09:54.708Z,21.40
2019-06-20T07:12:23.520Z,21.40
2019-06-20T07:14:52.149Z,21.50
2019-06-20T07:17:20.781Z,21.50
2019-06-20T07:19:49.416Z,21.60
2019-06-20T07:22:18.058Z,21.70
2019-06-20T07:24:46.720Z,21.80
2019-06-20T07:27:15.347Z,21.90
2019-06-20T07:29:44.071Z,22.00
2019-06-20T07:32:12.705Z,22.00
2019-06-20T07:34:41.343Z,22.00
2019-06-20T07:37:09.978Z,22.00
2019-06-20T07:39:38.666Z,22.10
2019-06-20T07:42:07.251Z,22.20
2019-06-20T07:44:35.922Z,22.30
2019-06-20T07:47:17.082Z,22.30
2019-06-20T07:49:34.855Z,22.40
2019-06-20T07:52:03.444Z,22.60
2019-06-20T07:54:32.107Z,22.60
2019-06-20T07:57:00.737Z,22.80
2019-06-20T07:59:29.412Z,23.00
2019-06-20T08:01:58.013Z,23.10
2019-06-20T08:04:26.692Z,23.20
2019-06-20T08:06:55.303Z,23.30
2019-06-20T08:09:23.949Z,23.40
2019-06-20T08:11:52.602Z,23.50
2019-06-20T08:14:21.255Z,23.70
2019-06-20T08:16:49.870Z,23.80
2019-06-20T08:19:18.533Z,23.80
2019-06-20T08:21:47.248Z,23.80
2019-06-20T08:24:15.888Z,23.90
2019-06-20T08:26:44.533Z,24.00
2019-06-20T08:29:20.749Z,24.10
2019-06-20T08:31:43.471Z,24.10
2019-06-20T08:34:12.112Z,24.20
2019-06-20T08:36:40.727Z,24.30
2019-06-20T08:39:09.512Z,24.40
2019-06-20T08:41:38.107Z,24.50
2019-06-20T08:44:06.886Z,24.60
2019-06-20T08:46:35.708Z,24.60
2019-06-20T08:49:05.694Z,24.60
2019-06-20T08:51:34.499Z,24.70
2019-06-20T08:54:03.476Z,24.80
2019-06-20T08:56:32.145Z,25.10
2019-06-20T08:59:00.895Z,25.20
2019-06-20T09:01:29.896Z,25.30
2019-06-20T09:03:58.719Z,25.40
2019-06-20T09:06:27.389Z,25.50
2019-06-20T09:08:56.692Z,25.60
2019-06-20T09:11:26.286Z,25.70
2019-06-20T09:13:55.470Z,25.80
2019-06-20T09:16:24.888Z,25.90
2019-06-20T09:18:54.926Z,26.00
2019-06-20T09:21:23.911Z,25.90
2019-06-20T09:23:54.065Z,26.00
2019-06-20T09:26:22.812Z,26.10
2019-06-20T09:28:52.724Z,26.20
2019-06-20T09:31:21.703Z,26.30
2019-06-20T09:33:52.177Z,26.40
2019-06-20T09:36:20.617Z,26.50
2019-06-20T09:38:50.667Z,26.50
2019-06-20T09:41:19.518Z,26.50
2019-06-20T09:43:48.154Z,26.50
2019-06-20T09:46:16.769Z,26.70
2019-06-20T09:48:45.410Z,26.80
2019-06-20T09:51:14.048Z,26.80
2019-06-20T09:53:42.678Z,26.90
2019-06-20T09:56:11.294Z,26.90
2019-06-20T09:58:39.938Z,27.00
2019-06-20T10:01:08.573Z,27.10
2019-06-20T10:03:37.205Z,27.10
2019-06-20T10:06:13.422Z,27.10
2019-06-20T10:08:36.146Z,27.10
2019-06-20T10:11:04.860Z,27.10
2019-06-20T10:13:33.489Z,27.10
2019-06-20T10:16:02.135Z,27.20
2019-06-20T10:18:30.814Z,27.20
2019-06-20T10:20:59.487Z,27.30
2019-06-20T10:23:28.087Z,27.40
2019-06-20T10:25:58.159Z,27.50
2019-06-20T10:28:26.875Z,27.50
2019-06-20T10:30:55.547Z,27.40
2019-06-20T10:33:24.149Z,27.40
2019-06-20T10:35:52.808Z,27.40
2019-06-20T10:38:21.420Z,27.50
2019-06-20T10:40:50.093Z,27.40
2019-06-20T10:43:18.697Z,27.50
2019-06-20T10:45:47.436Z,27.40
2019-06-20T10:48:16.148Z,27.50
2019-06-20T10:50:45.690Z,27.60
2019-06-20T10:53:14.376Z,27.60
2019-06-20T10:55:43.325Z,27.40
2019-06-20T10:58:12.449Z,27.30
2019-06-20T11:00:41.802Z,27.20
2019-06-20T11:03:11.385Z,27.00
2019-06-20T11:05:40.907Z,27.00
2019-06-20T11:08:10.375Z,26.90
2019-06-20T11:10:40.354Z,27.00
2019-06-20T11:13:09.298Z,27.10
2019-06-20T11:15:39.251Z,27.30
2019-06-20T11:18:08.447Z,27.50
2019-06-20T11:20:37.850Z,27.50
2019-06-20T11:23:07.366Z,27.50
2019-06-20T11:25:36.992Z,27.60
2019-06-20T11:28:06.288Z,27.60
2019-06-20T11:30:48.019Z,27.50
2019-06-20T11:33:06.016Z,27.50
2019-06-20T11:35:35.930Z,27.60
2019-06-20T11:38:05.196Z,27.60
2019-06-20T11:40:36.208Z,27.70
2019-06-20T11:43:04.469Z,27.80
2019-06-20T11:45:35.410Z,27.80
2019-06-20T11:48:03.353Z,27.60
2019-06-20T11:50:34.435Z,27.40
2019-06-20T11:53:03.302Z,27.30
2019-06-20T11:55:32.559Z,27.20
2019-06-20T11:58:01.721Z,27.30
2019-06-20T12:00:31.108Z,27.30
2019-06-20T12:02:59.974Z,27.30
2019-06-20T12:05:28.831Z,27.40
2019-06-20T12:07:57.593Z,27.40
2019-06-20T12:10:27.218Z,27.40
2019-06-20T12:12:56.549Z,27.20
2019-06-20T12:15:26.248Z,26.90
2019-06-20T12:17:56.230Z,26.60
2019-06-20T12:20:25.706Z,26.30
2019-06-20T12:22:55.636Z,26.10
2019-06-20T12:25:25.063Z,26.00
2019-06-20T12:27:53.782Z,26.20
2019-06-20T12:30:22.675Z,26.50
2019-06-20T12:32:51.301Z,26.70
2019-06-20T12:35:19.970Z,26.80
2019-06-20T12:37:49.791Z,26.80
2019-06-20T12:40:20.605Z,26.80
2019-06-20T12:42:49.738Z,26.90
2019-06-20T12:45:19.840Z,26.90
2019-06-20T12:47:50.101Z,26.90
2019-06-20T12:50:20.481Z,26.90
2019-06-20T12:52:49.688Z,27.00
2019-06-20T12:55:18.523Z,27.20
2019-06-20T12:57:48.391Z,27.40
2019-06-20T13:00:17.739Z,27.30
2019-06-20T13:02:47.462Z,27.30
2019-06-20T13:05:16.532Z,27.20
2019-06-20T13:07:46.508Z,27.10
2019-06-20T13:10:15.663Z,27.20
2019-06-20T13:12:44.392Z,27.40
2019-06-20T13:15:14.637Z,27.70
2019-06-20T13:17:45.512Z,28.00
2019-06-20T13:20:17.092Z,28.20
2019-06-20T13:22:49.369Z,28.40
2019-06-20T13:25:18.752Z,28.60
2019-06-20T13:27:50.590Z,28.50
2019-06-20T13:30:21.425Z,28.40
2019-06-20T13:32:51.194Z,28.20
2019-06-20T13:35:21.033Z,28.10
2019-06-20T13:37:50.679Z,28.00
2019-06-20T13:40:20.405Z,27.80
2019-06-20T13:42:50.515Z,27.60
2019-06-20T13:45:22.427Z,27.60
2019-06-20T13:47:52.463Z,27.60
2019-06-20T13:50:22.631Z,27.60
2019-06-20T13:52:51.898Z,27.60
2019-06-20T13:55:21.481Z,27.80
2019-06-20T13:57:50.857Z,27.90
2019-06-20T14:00:20.761Z,28.20
2019-06-20T14:02:51.538Z,28.40
2019-06-20T14:05:20.990Z,28.50
2019-06-20T14:07:53.889Z,28.60
2019-06-20T14:10:22.197Z,28.80
2019-06-20T14:12:52.071Z,29.00
2019-06-20T14:15:21.684Z,29.00
2019-06-20T14:17:51.605Z,28.90
2019-06-20T14:20:23.079Z,28.60
2019-06-20T14:22:52.642Z,28.30
2019-06-20T14:25:22.159Z,28.00
2019-06-20T14:27:52.048Z,27.90
2019-06-20T14:30:21.920Z,27.80
2019-06-20T14:32:51.452Z,28.00
2019-06-20T14:35:20.235Z,28.10
2019-06-20T14:37:51.439Z,28.40
2019-06-20T14:40:20.576Z,28.80
2019-06-20T14:42:52.187Z,28.80
2019-06-20T14:45:22.605Z,28.90
2019-06-20T14:47:52.834Z,28.90
2019-06-20T14:50:23.300Z,29.00
2019-06-20T14:52:54.016Z,29.00
2019-06-20T14:55:24.462Z,28.90
2019-06-20T14:57:54.909Z,28.80
2019-06-20T15:00:25.538Z,28.60
2019-06-20T15:02:58.392Z,28.50
2019-06-20T15:05:27.770Z,28.40
2019-06-20T15:07:57.275Z,28.40
2019-06-20T15:10:27.877Z,28.30
2019-06-20T15:12:57.972Z,28.30
2019-06-20T15:15:30.844Z,28.20
2019-06-20T15:17:58.898Z,28.00
2019-06-20T15:20:29.267Z,27.90
2019-06-20T15:22:59.627Z,28.00
2019-06-20T15:25:30.017Z,28.20
2019-06-20T15:28:00.354Z,28.10
2019-06-20T15:30:30.295Z,28.00
2019-06-20T15:33:09.266Z,28.00
2019-06-20T15:35:31.236Z,28.00
2019-06-20T15:38:01.642Z,28.00
2019-06-20T15:40:31.742Z,28.10
2019-06-20T15:43:01.898Z,28.00
2019-06-20T15:45:32.342Z,27.90
2019-06-20T15:48:02.877Z,27.80
2019-06-20T15:50:33.386Z,27.70
2019-06-20T15:53:03.764Z,27.70
2019-06-20T15:55:33.847Z,27.80
2019-06-20T15:58:02.851Z,27.80
2019-06-20T16:00:33.676Z,27.80
2019-06-20T16:03:10.049Z,28.00
2019-06-20T16:05:34.233Z,28.10
2019-06-20T16:08:03.888Z,28.20
2019-06-20T16:10:34.123Z,28.30
2019-06-20T16:13:04.031Z,28.40
2019-06-20T16:15:32.916Z,28.50
2019-06-20T16:18:03.207Z,28.50
2019-06-20T16:20:33.248Z,28.60
2019-06-20T16:23:03.358Z,28.70
2019-06-20T16:25:33.735Z,28.70
2019-06-20T16:28:04.132Z,28.50
2019-06-20T16:30:34.800Z,28.30
2019-06-20T16:33:05.031Z,28.20
2019-06-20T16:35:36.347Z,28.30
2019-06-20T16:38:06.701Z,28.30
2019-06-20T16:40:40.955Z,28.30
2019-06-20T16:43:11.526Z,28.30
2019-06-20T16:45:41.954Z,28.10
2019-06-20T16:48:12.392Z,28.00
2019-06-20T16:50:43.013Z,27.90
2019-06-20T16:53:13.625Z,27.80
2019-06-20T16:55:45.533Z,27.70
2019-06-20T16:58:15.918Z,27.60
2019-06-20T17:00:47.030Z,27.60
2019-06-20T17:03:21.753Z,27.60
2019-06-20T17:05:52.413Z,27.70
2019-06-20T17:08:23.683Z,27.60
2019-06-20T17:10:54.471Z,27.60
2019-06-20T17:13:25.023Z,27.40
2019-06-20T17:15:57.731Z,27.20
2019-06-20T17:18:28.335Z,27.10
2019-06-20T17:20:59.934Z,27.00
2019-06-20T17:23:30.559Z,26.90
2019-06-20T17:26:01.612Z,26.80
2019-06-20T17:28:32.217Z,26.70
2019-06-20T17:31:02.975Z,26.60
2019-06-20T17:33:33.550Z,26.50
2019-06-20T17:36:17.247Z,26.50
2019-06-20T17:38:36.215Z,26.40
2019-06-20T17:41:06.848Z,26.30
2019-06-20T17:43:37.432Z,26.30
2019-06-20T17:46:08.217Z,26.30
2019-06-20T17:48:38.829Z,26.30
2019-06-20T17:51:09.566Z,26.30
2019-06-20T17:53:41.691Z,26.30
2019-06-20T17:56:13.004Z,26.30
2019-06-20T17:58:47.001Z,26.30
2019-06-20T18:01:17.714Z,26.30
2019-06-20T18:03:48.380Z,26.30
2019-06-20T18:06:23.687Z,26.20
2019-06-20T18:08:54.288Z,26.10
2019-06-20T18:11:26.243Z,25.90
2019-06-20T18:13:57.411Z,25.80
2019-06-20T18:16:28.078Z,25.70
2019-06-20T18:18:58.654Z,25.60
2019-06-20T18:21:29.421Z,25.60
2019-06-20T18:24:00.506Z,25.50
2019-06-20T18:26:31.240Z,25.50
2019-06-20T18:29:01.861Z,25.40
2019-06-20T18:31:33.223Z,25.30
2019-06-20T18:34:05.365Z,25.20
2019-06-20T18:36:36.138Z,25.10
2019-06-20T18:39:10.571Z,25.00
2019-06-20T18:41:41.335Z,24.90
2019-06-20T18:44:12.948Z,24.80
2019-06-20T18:46:44.728Z,24.80
2019-06-20T18:49:15.350Z,24.70
2019-06-20T18:51:48.500Z,24.60
2019-06-20T18:54:19.092Z,24.50
2019-06-20T18:56:51.238Z,24.50
2019-06-20T18:59:21.858Z,24.50
2019-06-20T19:01:54.037Z,24.40
2019-06-20T19:04:24.674Z,24.30
2019-06-20T19:06:55.405Z,24.30
2019-06-20T19:09:25.921Z,24.20
2019-06-20T19:11:56.788Z,24.20
2019-06-20T19:14:28.328Z,24.10
2019-06-20T19:17:00.741Z,24.10
2019-06-20T19:19:32.910Z,24.10
2019-06-20T19:22:05.270Z,24.10
2019-06-20T19:24:37.905Z,24.00
2019-06-20T19:27:10.131Z,23.90
2019-06-20T19:29:40.757Z,23.70
2019-06-20T19:32:11.476Z,23.60
2019-06-20T19:34:42.119Z,23.50
2019-06-20T19:37:13.286Z,23.40
2019-06-20T19:39:43.929Z,23.40
2019-06-20T19:42:14.694Z,23.30
2019-06-20T19:44:45.415Z,23.20
2019-06-20T19:47:18.050Z,23.10
2019-06-20T19:49:50.250Z,23.00
2019-06-20T19:52:21.044Z,23.00
2019-06-20T19:54:54.112Z,22.90
2019-06-20T19:57:24.833Z,22.80
2019-06-20T19:59:58.679Z,22.80
2019-06-20T20:02:29.369Z,22.80
2019-06-20T20:05:17.438Z,22.60
2019-06-20T20:07:34.854Z,22.50
2019-06-20T20:10:07.100Z,22.40
2019-06-20T20:12:39.431Z,22.40
2019-06-20T20:15:11.545Z,22.30
2019-06-20T20:17:42.293Z,22.20
2019-06-20T20:20:12.898Z,22.00
2019-06-20T20:22:44.141Z,21.80
2019-06-20T20:25:14.826Z,21.70
2019-06-20T20:27:46.557Z,21.70
2019-06-20T20:30:17.225Z,21.70
2019-06-20T20:32:47.899Z,21.70
2019-06-20T20:35:31.540Z,21.70
2019-06-20T20:37:50.687Z,21.60
2019-06-20T20:40:21.657Z,21.50
2019-06-20T20:42:52.404Z,21.20
2019-06-20T20:45:23.082Z,20.90
2019-06-20T20:47:54.121Z,20.60
2019-06-20T20:50:24.749Z,20.30
2019-06-20T20:52:55.327Z,20.20
2019-06-20T20:55:25.816Z,20.00
2019-06-20T20:57:56.448Z,19.90
2019-06-20T21:00:28.434Z,19.80
2019-06-20T21:02:58.909Z,19.80
2019-06-20T21:05:29.323Z,19.80
2019-06-20T21:07:59.810Z,19.80
2019-06-20T21:10:30.306Z,19.80
2019-06-20T21:13:02.655Z,19.80
2019-06-20T21:15:32.963Z,19.80
2019-06-20T21:18:03.464Z,19.70
2019-06-20T21:20:33.771Z,19.70
2019-06-20T21:23:04.270Z,19.70
2019-06-20T21:25:34.291Z,19.70
2019-06-20T21:28:04.438Z,19.60
2019-06-20T21:30:34.107Z,19.60
2019-06-20T21:33:03.731Z,19.60
2019-06-20T21:35:33.224Z,19.60
2019-06-20T21:38:02.084Z,19.60
2019-06-20T21:40:30.707Z,19.50
2019-06-20T21:42:59.457Z,19.40
2019-06-20T21:45:28.181Z,19.40
2019-06-20T21:47:56.855Z,19.40
2019-06-20T21:50:25.476Z,19.40
2019-06-20T21:52:54.104Z,19.40
2019-06-20T21:55:22.745Z,19.40
2019-06-20T21:57:51.369Z,19.20
2019-06-20T22:00:23.424Z,19.20
2019-06-20T22:02:52.067Z,19.20
2019-06-20T22:05:20.736Z,19.10
2019-06-20T22:07:49.399Z,19.00
2019-06-20T22:10:18.151Z,19.00
2019-06-20T22:12:46.774Z,18.80
2019-06-20T22:15:15.529Z,18.80
2019-06-20T22:17:44.163Z,18.80
2019-06-20T22:20:12.957Z,18.70
2019-06-20T22:22:41.660Z,18.60
2019-06-20T22:25:10.259Z,18.70
2019-06-20T22:27:38.906Z,18.60
2019-06-20T22:30:08.502Z,18.70
2019-06-20T22:32:37.163Z,18.70
2019-06-20T22:35:05.817Z,18.70
2019-06-20T22:37:34.475Z,18.70
2019-06-20T22:40:03.079Z,18.70
2019-06-20T22:42:31.762Z,18.80
2019-06-20T22:45:00.343Z,18.70
2019-06-20T22:47:29.005Z,18.70
2019-06-20T22:49:57.627Z,18.80
2019-06-20T22:52:26.264Z,18.80
2019-06-20T22:54:54.853Z,18.80
2019-06-20T22:57:23.565Z,18.90
2019-06-20T22:59:52.167Z,18.90
2019-06-20T23:02:20.825Z,18.90
2019-06-20T23:04:49.435Z,19.00
2019-06-20T23:07:18.106Z,19.00
2019-06-20T23:09:46.738Z,19.00
2019-06-20T23:12:15.422Z,19.10
2019-06-20T23:14:44.072Z,19.10
2019-06-20T23:17:12.708Z,19.10
2019-06-20T23:19:41.346Z,19.10
2019-06-20T23:22:09.976Z,19.10
2019-06-20T23:24:38.635Z,19.20
2019-06-20T23:27:07.281Z,19.20
2019-06-20T23:29:35.920Z,19.20
2019-06-20T23:32:04.666Z,19.20
2019-06-20T23:34:33.328Z,19.20
2019-06-20T23:37:12.178Z,19.20
2019-06-20T23:39:32.212Z,19.20
2019-06-20T23:42:00.866Z,19.20
2019-06-20T23:44:29.501Z,19.10
2019-06-20T23:46:58.087Z,19.10
2019-06-20T23:49:26.781Z,19.10
2019-06-20T23:52:00.428Z,19.10
2019-06-20T23:54:29.114Z,19.00
2019-06-20T23:56:57.708Z,19.10
2019-06-20T23:59:26.372Z,19.10
